KHEZ/HEZ METAR and TAF weather

Enter ICAO airport designator
Station Type Date Time Source
KHEZ METAR 2021/04/17 01:56 UTC NOAA

KHEZ 170156Z AUTO 17004KT 10SM -RA FEW009 BKN080 OVC090 16/14 A2984 RMK AO2 SLP102 P0003 T01560144


Station Type Date Time Source
KHEZ Decoded METAR 2021/04/17 01:56 UTC NOAA

Natchez, Hardy-Anders Field Natchez-Adams County Airport, MS, United States (KHEZ) 31-37N 091-18W
Apr 16, 2021 - 09:56 PM EDT / 2021.04.17 0156 UTC
Wind: from the S (170 degrees) at 5 MPH (4 KT):0
Visibility: 10 mile(s):0
Sky conditions: overcast
Weather: light rain
Precipitation last hour: 0.03 inches
Temperature: 60.1 F (15.6 C)
Dew Point: 57.9 F (14.4 C)
Relative Humidity: 92%
Pressure (altimeter): 29.84 in. Hg (1010 hPa)
ob: KHEZ 170156Z AUTO 17004KT 10SM -RA FEW009 BKN080 OVC090 16/14 A2984 RMK AO2 SLP102 P0003 T01560144
cycle: 2

Station Type Date Time Source
KHEZ TAF UTC NOAA

Error!

Example: see airport list